sensor_id;sensor_type;location;lat;lon;timestamp;temperature;humidity
32728;DHT22;55292;51.844;19.246;2023-05-10T00:03:41;7.60;94.00
32728;DHT22;55292;51.844;19.246;2023-05-10T00:08:45;7.70;94.40
32728;DHT22;55292;51.844;19.246;2023-05-10T00:13:47;7.60;94.70
32728;DHT22;55292;51.844;19.246;2023-05-10T00:18:50;7.60;94.40
32728;DHT22;55292;51.844;19.246;2023-05-10T00:23:53;7.30;95.00
32728;DHT22;55292;51.844;19.246;2023-05-10T00:28:55;7.40;95.20
32728;DHT22;55292;51.844;19.246;2023-05-10T00:33:58;7.30;95.50
32728;DHT22;55292;51.844;19.246;2023-05-10T00:39:01;7.30;95.10
32728;DHT22;55292;51.844;19.246;2023-05-10T00:44:05;7.20;95.80
32728;DHT22;55292;51.844;19.246;2023-05-10T00:54:12;7.30;94.80
32728;DHT22;55292;51.844;19.246;2023-05-10T00:59:16;7.30;94.30
32728;DHT22;55292;51.844;19.246;2023-05-10T01:04:20;7.20;94.70
32728;DHT22;55292;51.844;19.246;2023-05-10T01:09:28;7.20;94.40
32728;DHT22;55292;51.844;19.246;2023-05-10T01:19:35;7.20;94.50
32728;DHT22;55292;51.844;19.246;2023-05-10T01:46:07;6.90;96.00
32728;DHT22;55292;51.844;19.246;2023-05-10T01:51:21;7.00;96.10
32728;DHT22;55292;51.844;19.246;2023-05-10T01:56:26;7.00;96.00
32728;DHT22;55292;51.844;19.246;2023-05-10T02:01:30;7.00;95.70
32728;DHT22;55292;51.844;19.246;2023-05-10T02:06:34;6.80;96.80
32728;DHT22;55292;51.844;19.246;2023-05-10T02:11:38;6.80;96.80
32728;DHT22;55292;51.844;19.246;2023-05-10T02:16:42;6.90;96.60
32728;DHT22;55292;51.844;19.246;2023-05-10T02:21:45;6.90;96.20
32728;DHT22;55292;51.844;19.246;2023-05-10T02:26:49;6.90;96.40
32728;DHT22;55292;51.844;19.246;2023-05-10T02:31:54;7.00;96.10
32728;DHT22;55292;51.844;19.246;2023-05-10T02:36:59;7.00;95.70
32728;DHT22;55292;51.844;19.246;2023-05-10T02:42:05;7.10;95.60
32728;DHT22;55292;51.844;19.246;2023-05-10T02:47:08;7.10;96.30
32728;DHT22;55292;51.844;19.246;2023-05-10T02:52:16;7.20;95.60
32728;DHT22;55292;51.844;19.246;2023-05-10T02:57:31;7.10;95.90
32728;DHT22;55292;51.844;19.246;2023-05-10T03:02:35;7.10;96.10
32728;DHT22;55292;51.844;19.246;2023-05-10T03:07:38;7.20;95.50
32728;DHT22;55292;51.844;19.246;2023-05-10T03:18:18;7.90;95.20
32728;DHT22;55292;51.844;19.246;2023-05-10T03:23:48;8.00;95.00
32728;DHT22;55292;51.844;19.246;2023-05-10T03:28:53;8.90;92.00
32728;DHT22;55292;51.844;19.246;2023-05-10T03:33:57;9.70;90.60
32728;DHT22;55292;51.844;19.246;2023-05-10T03:39:01;10.60;85.10
32728;DHT22;55292;51.844;19.246;2023-05-10T03:44:05;11.40;81.60
32728;DHT22;55292;51.844;19.246;2023-05-10T03:49:08;12.20;78.20
32728;DHT22;55292;51.844;19.246;2023-05-10T03:54:11;12.70;74.10
32728;DHT22;55292;51.844;19.246;2023-05-10T03:59:14;13.10;73.20
32728;DHT22;55292;51.844;19.246;2023-05-10T04:04:16;13.60;70.50
32728;DHT22;55292;51.844;19.246;2023-05-10T04:09:23;14.40;67.30
32728;DHT22;55292;51.844;19.246;2023-05-10T04:14:26;15.00;65.50
32728;DHT22;55292;51.844;19.246;2023-05-10T04:19:32;15.30;63.50
32728;DHT22;55292;51.844;19.246;2023-05-10T04:24:35;15.80;62.40
32728;DHT22;55292;51.844;19.246;2023-05-10T04:29:38;16.20;60.50
32728;DHT22;55292;51.844;19.246;2023-05-10T04:34:40;17.00;59.50
32728;DHT22;55292;51.844;19.246;2023-05-10T04:39:43;17.10;58.00
32728;DHT22;55292;51.844;19.246;2023-05-10T04:44:46;17.10;57.50
32728;DHT22;55292;51.844;19.246;2023-05-10T04:49:48;17.50;58.40
32728;DHT22;55292;51.844;19.246;2023-05-10T04:54:51;17.90;56.40
32728;DHT22;55292;51.844;19.246;2023-05-10T04:59:54;18.40;56.00
32728;DHT22;55292;51.844;19.246;2023-05-10T05:04:57;19.00;54.20
32728;DHT22;55292;51.844;19.246;2023-05-10T05:10:01;18.80;55.60
32728;DHT22;55292;51.844;19.246;2023-05-10T05:15:04;19.90;52.50
32728;DHT22;55292;51.844;19.246;2023-05-10T05:20:10;20.10;53.50
32728;DHT22;55292;51.844;19.246;2023-05-10T05:25:13;19.80;52.80
32728;DHT22;55292;51.844;19.246;2023-05-10T05:30:16;20.30;52.80
32728;DHT22;55292;51.844;19.246;2023-05-10T05:35:19;20.60;50.60
32728;DHT22;55292;51.844;19.246;2023-05-10T05:40:22;20.10;52.30
32728;DHT22;55292;51.844;19.246;2023-05-10T05:45:24;20.20;51.70
32728;DHT22;55292;51.844;19.246;2023-05-10T05:50:27;19.70;53.10
32728;DHT22;55292;51.844;19.246;2023-05-10T05:55:29;19.20;53.30
32728;DHT22;55292;51.844;19.246;2023-05-10T06:00:34;16.50;59.60
32728;DHT22;55292;51.844;19.246;2023-05-10T06:05:36;14.80;65.30
32728;DHT22;55292;51.844;19.246;2023-05-10T06:10:39;14.20;68.30
32728;DHT22;55292;51.844;19.246;2023-05-10T06:15:42;14.00;69.60
32728;DHT22;55292;51.844;19.246;2023-05-10T06:20:47;13.70;70.50
32728;DHT22;55292;51.844;19.246;2023-05-10T06:25:52;13.90;74.00
32728;DHT22;55292;51.844;19.246;2023-05-10T06:30:55;13.90;73.50
32728;DHT22;55292;51.844;19.246;2023-05-10T06:35:57;13.70;73.20
32728;DHT22;55292;51.844;19.246;2023-05-10T06:41:00;13.70;75.00
32728;DHT22;55292;51.844;19.246;2023-05-10T06:46:03;13.90;73.70
32728;DHT22;55292;51.844;19.246;2023-05-10T06:51:05;14.10;74.40
32728;DHT22;55292;51.844;19.246;2023-05-10T06:56:08;14.10;73.80
32728;DHT22;55292;51.844;19.246;2023-05-10T07:01:11;14.20;75.50
32728;DHT22;55292;51.844;19.246;2023-05-10T07:06:14;14.10;74.80
32728;DHT22;55292;51.844;19.246;2023-05-10T07:11:34;14.40;75.20
32728;DHT22;55292;51.844;19.246;2023-05-10T07:16:37;14.50;75.70
32728;DHT22;55292;51.844;19.246;2023-05-10T07:21:40;14.50;74.20
32728;DHT22;55292;51.844;19.246;2023-05-10T07:26:44;14.70;76.10
32728;DHT22;55292;51.844;19.246;2023-05-10T07:31:47;15.00;75.80
32728;DHT22;55292;51.844;19.246;2023-05-10T07:36:50;15.30;74.60
32728;DHT22;55292;51.844;19.246;2023-05-10T07:41:53;15.40;75.60
32728;DHT22;55292;51.844;19.246;2023-05-10T07:46:55;15.30;76.20
32728;DHT22;55292;51.844;19.246;2023-05-10T07:51:58;15.40;72.10
32728;DHT22;55292;51.844;19.246;2023-05-10T07:57:01;15.70;75.10
32728;DHT22;55292;51.844;19.246;2023-05-10T08:02:04;15.70;75.60
32728;DHT22;55292;51.844;19.246;2023-05-10T08:07:06;15.90;73.40
32728;DHT22;55292;51.844;19.246;2023-05-10T08:12:09;16.00;73.30
32728;DHT22;55292;51.844;19.246;2023-05-10T08:17:12;16.10;72.90
32728;DHT22;55292;51.844;19.246;2023-05-10T08:22:14;16.30;76.00
32728;DHT22;55292;51.844;19.246;2023-05-10T08:27:17;16.20;72.00
32728;DHT22;55292;51.844;19.246;2023-05-10T08:32:20;16.30;71.90
32728;DHT22;55292;51.844;19.246;2023-05-10T08:37:24;16.50;72.50
32728;DHT22;55292;51.844;19.246;2023-05-10T08:42:29;16.90;71.60
32728;DHT22;55292;51.844;19.246;2023-05-10T08:47:32;16.50;69.60
32728;DHT22;55292;51.844;19.246;2023-05-10T08:52:38;16.50;67.10
32728;DHT22;55292;51.844;19.246;2023-05-10T08:57:42;16.40;66.90
32728;DHT22;55292;51.844;19.246;2023-05-10T09:02:45;16.50;68.90
32728;DHT22;55292;51.844;19.246;2023-05-10T09:07:50;16.90;68.90
32728;DHT22;55292;51.844;19.246;2023-05-10T09:12:56;17.20;66.70
32728;DHT22;55292;51.844;19.246;2023-05-10T09:18:01;17.20;64.20
32728;DHT22;55292;51.844;19.246;2023-05-10T09:23:05;17.10;66.60
32728;DHT22;55292;51.844;19.246;2023-05-10T09:28:08;17.00;66.30
32728;DHT22;55292;51.844;19.246;2023-05-10T09:33:11;17.20;65.90
32728;DHT22;55292;51.844;19.246;2023-05-10T09:38:16;17.20;66.10
32728;DHT22;55292;51.844;19.246;2023-05-10T09:43:20;17.30;68.20
32728;DHT22;55292;51.844;19.246;2023-05-10T09:48:24;17.40;67.20
32728;DHT22;55292;51.844;19.246;2023-05-10T09:53:27;17.50;66.90
32728;DHT22;55292;51.844;19.246;2023-05-10T09:58:30;17.60;63.80
32728;DHT22;55292;51.844;19.246;2023-05-10T10:03:32;17.70;66.20
32728;DHT22;55292;51.844;19.246;2023-05-10T10:08:35;17.60;63.50
32728;DHT22;55292;51.844;19.246;2023-05-10T10:13:38;17.50;67.40
32728;DHT22;55292;51.844;19.246;2023-05-10T10:18:42;17.50;66.00
32728;DHT22;55292;51.844;19.246;2023-05-10T10:23:46;17.10;61.30
32728;DHT22;55292;51.844;19.246;2023-05-10T10:34:05;17.40;63.00
32728;DHT22;55292;51.844;19.246;2023-05-10T10:39:10;18.00;63.80
32728;DHT22;55292;51.844;19.246;2023-05-10T10:49:31;18.00;63.70
32728;DHT22;55292;51.844;19.246;2023-05-10T10:54:35;17.60;61.70
32728;DHT22;55292;51.844;19.246;2023-05-10T10:59:42;17.70;62.80
32728;DHT22;55292;51.844;19.246;2023-05-10T11:04:48;17.50;61.60
32728;DHT22;55292;51.844;19.246;2023-05-10T11:09:52;18.10;65.20
32728;DHT22;55292;51.844;19.246;2023-05-10T11:14:57;18.40;64.40
32728;DHT22;55292;51.844;19.246;2023-05-10T11:20:09;18.60;61.80
32728;DHT22;55292;51.844;19.246;2023-05-10T11:25:13;18.80;65.10
32728;DHT22;55292;51.844;19.246;2023-05-10T11:30:15;19.40;66.80
32728;DHT22;55292;51.844;19.246;2023-05-10T11:35:19;18.80;60.30
32728;DHT22;55292;51.844;19.246;2023-05-10T11:40:22;18.00;60.40
32728;DHT22;55292;51.844;19.246;2023-05-10T11:45:26;18.30;60.60
32728;DHT22;55292;51.844;19.246;2023-05-10T11:50:31;18.50;61.80
32728;DHT22;55292;51.844;19.246;2023-05-10T11:55:35;18.60;64.10
32728;DHT22;55292;51.844;19.246;2023-05-10T12:00:38;18.60;60.20
32728;DHT22;55292;51.844;19.246;2023-05-10T12:05:40;18.10;59.50
32728;DHT22;55292;51.844;19.246;2023-05-10T12:10:44;18.30;63.20
32728;DHT22;55292;51.844;19.246;2023-05-10T12:15:47;18.30;63.20
32728;DHT22;55292;51.844;19.246;2023-05-10T12:20:52;18.10;60.60
32728;DHT22;55292;51.844;19.246;2023-05-10T12:26:03;18.50;68.10
32728;DHT22;55292;51.844;19.246;2023-05-10T12:31:09;18.50;62.10
32728;DHT22;55292;51.844;19.246;2023-05-10T12:36:14;18.30;61.30
32728;DHT22;55292;51.844;19.246;2023-05-10T12:41:18;18.30;61.90
32728;DHT22;55292;51.844;19.246;2023-05-10T12:46:21;18.50;59.40
32728;DHT22;55292;51.844;19.246;2023-05-10T12:51:24;18.70;63.90
32728;DHT22;55292;51.844;19.246;2023-05-10T12:56:26;18.50;62.60
32728;DHT22;55292;51.844;19.246;2023-05-10T13:01:29;19.00;62.50
32728;DHT22;55292;51.844;19.246;2023-05-10T13:06:32;19.30;60.80
32728;DHT22;55292;51.844;19.246;2023-05-10T13:11:35;19.00;58.90
32728;DHT22;55292;51.844;19.246;2023-05-10T13:16:39;18.90;61.10
32728;DHT22;55292;51.844;19.246;2023-05-10T13:21:42;19.30;60.50
32728;DHT22;55292;51.844;19.246;2023-05-10T13:26:47;19.30;58.60
32728;DHT22;55292;51.844;19.246;2023-05-10T13:31:50;18.80;60.30
32728;DHT22;55292;51.844;19.246;2023-05-10T13:36:53;19.00;59.10
32728;DHT22;55292;51.844;19.246;2023-05-10T13:41:56;19.10;59.90
32728;DHT22;55292;51.844;19.246;2023-05-10T13:47:02;18.90;59.50
32728;DHT22;55292;51.844;19.246;2023-05-10T13:52:05;19.10;60.30
32728;DHT22;55292;51.844;19.246;2023-05-10T13:57:11;18.80;59.00
32728;DHT22;55292;51.844;19.246;2023-05-10T14:02:16;18.90;61.20
32728;DHT22;55292;51.844;19.246;2023-05-10T14:07:19;19.10;59.30
32728;DHT22;55292;51.844;19.246;2023-05-10T14:12:22;18.90;60.40
32728;DHT22;55292;51.844;19.246;2023-05-10T14:17:25;18.80;59.40
32728;DHT22;55292;51.844;19.246;2023-05-10T14:22:32;18.80;59.40
32728;DHT22;55292;51.844;19.246;2023-05-10T14:27:35;18.80;58.40
32728;DHT22;55292;51.844;19.246;2023-05-10T14:32:41;18.80;60.40
32728;DHT22;55292;51.844;19.246;2023-05-10T14:37:44;18.60;62.90
32728;DHT22;55292;51.844;19.246;2023-05-10T14:42:49;18.80;61.30
32728;DHT22;55292;51.844;19.246;2023-05-10T14:47:53;18.70;63.40
32728;DHT22;55292;51.844;19.246;2023-05-10T14:52:56;18.70;60.40
32728;DHT22;55292;51.844;19.246;2023-05-10T14:57:59;18.60;59.50
32728;DHT22;55292;51.844;19.246;2023-05-10T15:03:03;18.20;59.00
32728;DHT22;55292;51.844;19.246;2023-05-10T15:08:07;18.00;58.00
32728;DHT22;55292;51.844;19.246;2023-05-10T15:13:09;18.10;59.30
32728;DHT22;55292;51.844;19.246;2023-05-10T15:18:13;18.20;58.90
32728;DHT22;55292;51.844;19.246;2023-05-10T15:23:19;18.40;60.40
32728;DHT22;55292;51.844;19.246;2023-05-10T15:28:22;18.30;59.40
32728;DHT22;55292;51.844;19.246;2023-05-10T15:33:25;18.20;61.20
32728;DHT22;55292;51.844;19.246;2023-05-10T15:38:29;18.20;60.70
32728;DHT22;55292;51.844;19.246;2023-05-10T15:43:32;18.10;61.20
32728;DHT22;55292;51.844;19.246;2023-05-10T15:48:36;18.10;60.30
32728;DHT22;55292;51.844;19.246;2023-05-10T15:53:39;18.10;58.70
32728;DHT22;55292;51.844;19.246;2023-05-10T15:58:58;17.90;58.40
32728;DHT22;55292;51.844;19.246;2023-05-10T16:04:01;17.60;60.40
32728;DHT22;55292;51.844;19.246;2023-05-10T16:09:04;17.60;59.90
32728;DHT22;55292;51.844;19.246;2023-05-10T16:14:07;17.60;58.20
32728;DHT22;55292;51.844;19.246;2023-05-10T16:19:10;17.50;61.90
32728;DHT22;55292;51.844;19.246;2023-05-10T16:24:14;17.50;60.90
32728;DHT22;55292;51.844;19.246;2023-05-10T16:29:20;17.40;58.70
32728;DHT22;55292;51.844;19.246;2023-05-10T16:34:23;17.20;58.40
32728;DHT22;55292;51.844;19.246;2023-05-10T16:39:26;17.10;61.00
32728;DHT22;55292;51.844;19.246;2023-05-10T16:44:29;17.00;60.90
32728;DHT22;55292;51.844;19.246;2023-05-10T16:49:32;16.90;62.40
32728;DHT22;55292;51.844;19.246;2023-05-10T16:54:36;17.20;60.50
32728;DHT22;55292;51.844;19.246;2023-05-10T16:59:42;17.60;57.80
32728;DHT22;55292;51.844;19.246;2023-05-10T17:04:45;17.70;58.20
32728;DHT22;55292;51.844;19.246;2023-05-10T17:09:49;17.70;57.60
32728;DHT22;55292;51.844;19.246;2023-05-10T17:14:52;17.60;57.80
32728;DHT22;55292;51.844;19.246;2023-05-10T17:19:55;17.10;56.60
32728;DHT22;55292;51.844;19.246;2023-05-10T17:24:58;17.10;56.50
32728;DHT22;55292;51.844;19.246;2023-05-10T17:30:04;16.50;57.80
32728;DHT22;55292;51.844;19.246;2023-05-10T17:35:07;16.10;59.60
32728;DHT22;55292;51.844;19.246;2023-05-10T17:40:11;15.80;58.60
32728;DHT22;55292;51.844;19.246;2023-05-10T17:45:16;15.70;58.30
32728;DHT22;55292;51.844;19.246;2023-05-10T17:50:19;15.40;61.40
32728;DHT22;55292;51.844;19.246;2023-05-10T17:55:24;14.30;60.80
32728;DHT22;55292;51.844;19.246;2023-05-10T18:00:33;15.10;60.20
32728;DHT22;55292;51.844;19.246;2023-05-10T18:05:37;14.70;60.80
32728;DHT22;55292;51.844;19.246;2023-05-10T18:10:40;13.90;63.80
32728;DHT22;55292;51.844;19.246;2023-05-10T18:15:43;13.50;65.40
32728;DHT22;55292;51.844;19.246;2023-05-10T18:20:46;13.30;65.50
32728;DHT22;55292;51.844;19.246;2023-05-10T18:25:52;13.20;66.00
32728;DHT22;55292;51.844;19.246;2023-05-10T18:35:59;13.10;64.40
32728;DHT22;55292;51.844;19.246;2023-05-10T18:41:02;12.70;67.20
32728;DHT22;55292;51.844;19.246;2023-05-10T18:46:05;12.80;66.50
32728;DHT22;55292;51.844;19.246;2023-05-10T18:51:10;12.80;65.70
32728;DHT22;55292;51.844;19.246;2023-05-10T18:56:17;12.50;66.20
32728;DHT22;55292;51.844;19.246;2023-05-10T19:01:20;12.40;67.80
32728;DHT22;55292;51.844;19.246;2023-05-10T19:06:23;12.10;68.30
32728;DHT22;55292;51.844;19.246;2023-05-10T19:11:26;11.70;68.90
32728;DHT22;55292;51.844;19.246;2023-05-10T19:16:31;11.80;69.30
32728;DHT22;55292;51.844;19.246;2023-05-10T19:21:37;11.70;70.30
32728;DHT22;55292;51.844;19.246;2023-05-10T19:26:40;11.50;69.70
32728;DHT22;55292;51.844;19.246;2023-05-10T19:31:45;11.60;69.20
32728;DHT22;55292;51.844;19.246;2023-05-10T19:36:49;11.50;69.80
32728;DHT22;55292;51.844;19.246;2023-05-10T19:41:54;11.40;70.10
32728;DHT22;55292;51.844;19.246;2023-05-10T19:46:57;11.20;70.80
32728;DHT22;55292;51.844;19.246;2023-05-10T19:52:06;11.00;71.80
32728;DHT22;55292;51.844;19.246;2023-05-10T19:57:13;10.80;72.60
32728;DHT22;55292;51.844;19.246;2023-05-10T20:02:16;10.80;72.70
32728;DHT22;55292;51.844;19.246;2023-05-10T20:07:19;10.80;73.30
32728;DHT22;55292;51.844;19.246;2023-05-10T20:12:23;10.70;73.90
32728;DHT22;55292;51.844;19.246;2023-05-10T20:17:27;10.60;74.10
32728;DHT22;55292;51.844;19.246;2023-05-10T20:22:31;10.50;74.90
32728;DHT22;55292;51.844;19.246;2023-05-10T20:27:35;10.30;75.60
32728;DHT22;55292;51.844;19.246;2023-05-10T20:32:39;10.30;76.40
32728;DHT22;55292;51.844;19.246;2023-05-10T20:37:44;10.10;78.00
32728;DHT22;55292;51.844;19.246;2023-05-10T20:42:50;10.10;78.70
32728;DHT22;55292;51.844;19.246;2023-05-10T20:47:58;10.00;79.90
32728;DHT22;55292;51.844;19.246;2023-05-10T20:53:01;10.10;80.90
32728;DHT22;55292;51.844;19.246;2023-05-10T20:58:04;9.90;81.10
32728;DHT22;55292;51.844;19.246;2023-05-10T21:08:11;9.80;81.60
32728;DHT22;55292;51.844;19.246;2023-05-10T21:13:16;9.70;83.00
32728;DHT22;55292;51.844;19.246;2023-05-10T21:18:19;9.60;84.00
32728;DHT22;55292;51.844;19.246;2023-05-10T21:23:34;9.50;84.30
32728;DHT22;55292;51.844;19.246;2023-05-10T21:28:37;9.40;84.90
32728;DHT22;55292;51.844;19.246;2023-05-10T21:33:44;9.30;85.40
32728;DHT22;55292;51.844;19.246;2023-05-10T21:38:47;9.20;87.10
32728;DHT22;55292;51.844;19.246;2023-05-10T21:43:52;9.10;87.00
32728;DHT22;55292;51.844;19.246;2023-05-10T21:48:58;9.20;87.30
32728;DHT22;55292;51.844;19.246;2023-05-10T21:54:04;9.00;87.90
32728;DHT22;55292;51.844;19.246;2023-05-10T21:59:10;8.90;88.50
32728;DHT22;55292;51.844;19.246;2023-05-10T22:04:14;8.80;89.20
32728;DHT22;55292;51.844;19.246;2023-05-10T22:09:19;8.80;89.60
32728;DHT22;55292;51.844;19.246;2023-05-10T22:14:22;8.70;90.30
32728;DHT22;55292;51.844;19.246;2023-05-10T22:19:24;8.70;90.00
32728;DHT22;55292;51.844;19.246;2023-05-10T22:29:30;8.70;88.20
32728;DHT22;55292;51.844;19.246;2023-05-10T22:34:33;8.80;87.80
32728;DHT22;55292;51.844;19.246;2023-05-10T22:39:40;8.80;88.10
32728;DHT22;55292;51.844;19.246;2023-05-10T22:44:44;8.70;88.60
32728;DHT22;55292;51.844;19.246;2023-05-10T22:49:48;8.60;87.60
32728;DHT22;55292;51.844;19.246;2023-05-10T22:54:51;8.60;89.10
32728;DHT22;55292;51.844;19.246;2023-05-10T22:59:54;8.40;90.20
32728;DHT22;55292;51.844;19.246;2023-05-10T23:04:57;8.40;90.20
32728;DHT22;55292;51.844;19.246;2023-05-10T23:10:01;8.20;90.80
32728;DHT22;55292;51.844;19.246;2023-05-10T23:15:04;8.40;90.50
32728;DHT22;55292;51.844;19.246;2023-05-10T23:20:07;8.20;90.80
32728;DHT22;55292;51.844;19.246;2023-05-10T23:25:11;8.20;91.10
32728;DHT22;55292;51.844;19.246;2023-05-10T23:30:13;7.90;91.70
32728;DHT22;55292;51.844;19.246;2023-05-10T23:35:19;7.90;91.80
32728;DHT22;55292;51.844;19.246;2023-05-10T23:40:25;8.20;91.40
32728;DHT22;55292;51.844;19.246;2023-05-10T23:45:29;8.10;91.70
32728;DHT22;55292;51.844;19.246;2023-05-10T23:50:33;8.20;91.70
32728;DHT22;55292;51.844;19.246;2023-05-10T23:55:36;8.10;91.10
